Weather at Lianshui Airport

Public forecast

Using degrees Celsius for public forecast. Weather courtesy of forecast.io.

Closest aviation weather report (METAR) to Lianshui Airport

Report is more than 6 hours old.

Closest report is Lianyungang Baitabu Airport / Baitabu Air Base, 48.5 nm (89.9 km) NNW. Retrieved 2015/10/20 00:00 UTC (7 years ago):

ZSLG 200000Z 00000MPS 1000 BR NSC 12/11 Q1017 NOSIG

Closest aviation forecast (TAF) to Lianshui Airport

Forecast is more than 12 hours old.

Closest forecast is Xuzhou Guanyin International Airport, 79.8 nm (147.9 km) WNW. Retrieved 2019/08/24 06:39 UTC (3 years ago):

TAF ZSXZ 240302Z 2406/2506 15003MPS 6000 NSC TX32/07Z TN22/21Z